Nearby METAR Reports

 

KSJC - San Jose, California, USA
Distance from station: NE 14km
Actualización: 19/11/2018 13:53
Mist, Despejado
Mist, Despejado
 Viento del calm
Viento: Calma
Temperatura: 6°C
Rocío: 4°C
Humedad: 87%
Barómetro: 1017.6 hPa
Resumen: Mist
Clouds: Despejado
Visibility: 5 km
2018/11/19 12:53 KSJC 191253Z AUTO 00000KT 3SM BR CLR 06/04 A3005 RMK AO2 SLP173 T00560039 $
KNUQ - Moffett Nas/Mtn, California, USA
Distance from station: N 14km
Actualización: 19/11/2018 13:56
Smoke, Despejado
Smoke, Despejado
 Viento del calm
Viento: Calma
Temperatura: 7°C
Rocío: 4°C
Humedad: 81%
Barómetro: 1017.6 hPa
Resumen: Smoke
Clouds: Despejado
Visibility: 6 km
2018/11/19 12:56 KNUQ 191256Z 00000KT 4SM FU CLR 07/04 A3005 RMK AO2 SLP177 T00670044
 
KPAO - Palo Alto, California, USA
Distance from station: NNO 23km
Actualización: 19/11/2018 05:47
NOT Current
Smoke, Haze, Muy nuboso
Smoke, Haze, Muy nuboso
 Viento del calm
Viento: Calma
Temperatura: 8°C
Rocío: 7°C
Humedad: 93%
Barómetro: 1018.6 hPa
Resumen: Smoke, Haze
Clouds: Muy nuboso
Visibility: 2 km
Cloud details: Muy nuboso 6096 m
2018/11/19 04:47 KPAO 190447Z 00000KT 2 1/2SM FU HZ BKN200 08/07 A3008 RMK LAST
KRHV - San Jose/Reid, California, USA
Distance from station: ENE 19km
Actualización: 19/11/2018 06:50
NOT Current
Smoke, Despejado
Smoke, Despejado
 Viento del calm
Viento: Calma
Temperatura: 9°C
Rocío: 7°C
Humedad: 87%
Barómetro: 1017.6 hPa
Resumen: Smoke
Clouds: Despejado
Visibility: 5 km
2018/11/19 05:50 KRHV 190550Z 00000KT 3SM FU SKC 09/07 A3005 RMK LAST
 
KOAK - Oakland, California, USA
Distance from station: NNO 50km
Actualización: 19/11/2018 13:53
Mist, Smoke, Parcialmente nuboso
Mist, Smoke, Parcialmente nuboso
 Viento del calm
Viento: Calma
Temperatura: 5°C
Rocío: 3°C
Humedad: 87%
Barómetro: 1017.6 hPa
Resumen: Mist, Smoke
Clouds: Parcialmente nuboso
Visibility: 5 km
Cloud details: Parcialmente nuboso 457 m
2018/11/19 12:53 KOAK 191253Z 00000KT 3SM BR FU SCT015 05/03 A3005 RMK AO2 SLP173 FU SCT015 T00500028
KSQL - San Carlos Airpo, California, USA
Distance from station: NO 34km
Actualización: 19/11/2018 13:55
Mist, Cubierto
Mist, Cubierto
 Viento del calm
Viento: Calma
Temperatura: 7°C
Rocío: 6°C
Humedad: 93%
Barómetro: 1017.3 hPa
Resumen: Mist
Clouds: Cubierto
Visibility: 2 km
Cloud details: Muy nuboso 122 m
Cubierto 518 m
2018/11/19 12:55 KSQL 191255Z AUTO 00000KT 2 1/2SM BR BKN004 OVC017 07/06 A3004 RMK AO2
 
KSFO - San Francisco, California, USA
Distance from station: NO 49km
Actualización: 19/11/2018 13:56
Haze, Smoke, Muy nuboso
Haze, Smoke, Muy nuboso
 Viento del S
Viento: S 6 km/h
Temperatura: 8°C
Rocío: 6°C
Humedad: 87%
Barómetro: 1016.9 hPa
Resumen: Haze, Smoke
Clouds: Muy nuboso
Visibility: 3 km
Cloud details: Few Clouds 183 m
Muy nuboso 427 m
2018/11/19 12:56 KSFO 191256Z 19003KT 2SM HZ FU FEW006 BKN014 08/06 A3003 RMK AO2 SLP169 FU FEW006 FU BKN014 T00830061 $
KE16 - San Martin, California, USA
Distance from station: ESE 43km
Actualización: 19/11/2018 13:50
Mist, Parcialmente nuboso
Mist, Parcialmente nuboso
 Viento del calm
Viento: Calma
Temperatura: 3°C
Rocío: 2°C
Humedad: 93%
Barómetro: 1017.9 hPa
Resumen: Mist
Clouds: Parcialmente nuboso
Visibility: 5 km
Cloud details: Few Clouds 701 m
Parcialmente nuboso 1067 m
Parcialmente nuboso 1402 m
2018/11/19 12:50 KE16 191250Z AUTO 00000KT 3SM BR FEW023 SCT035 SCT046 03/02 A3006 RMK AO2
 
KWVI - Watsonville, California, USA
Distance from station: SSE 44km
Actualización: 19/11/2018 13:53
Mist, Despejado
Mist, Despejado
 Viento del NO
Viento: NO 7 km/h
Temperatura: 5°C
Temp.Sensacion: 3°C
Rocío: 4°C
Humedad: 93%
Barómetro: 1016.9 hPa
Resumen: Mist
Clouds: Despejado
Visibility: 10 km
2018/11/19 12:53 KWVI 191253Z AUTO 32004KT 6SM BR CLR 05/04 A3003 RMK AO2 SLP170 T00500039
KHAF - Half Moon Bay, California, USA
Distance from station: ONO 50km
Actualización: 19/11/2018 14:00
Mist, Cubierto
Mist, Cubierto
 Viento del calm
Viento: Calma
Temperatura: 4°C
Rocío: 4°C
Humedad: 100%
Barómetro: 1016.9 hPa
Resumen: Mist
Clouds: Cubierto
Visibility: 5 km
Cloud details: Cubierto 91 m
2018/11/19 13:00 KHAF 191300Z AUTO 00000KT 3SM BR OVC003 04/04 A3003 RMK AO2
 
KHWD - Hayward, California, USA
Distance from station: N 44km
Actualización: 19/11/2018 13:54
Haze, Smoke, Despejado
Haze, Smoke, Despejado
 Viento del ENE
Viento: ENE 7 km/h
Temperatura: 7°C
Temp.Sensacion: 6°C
Rocío: 2°C
Humedad: 71%
Barómetro: 1017.3 hPa
Resumen: Haze, Smoke
Clouds: Despejado
Visibility: 5 km
2018/11/19 12:54 KHWD 191254Z AUTO 07004KT 3SM HZ FU CLR 07/02 A3004 RMK AO2 SLP181 T00670017
KLVK - Livermore, California, USA
Distance from station: NNE 51km
Actualización: 19/11/2018 13:53
Haze, Smoke, Despejado
Haze, Smoke, Despejado
 Viento del calm
Viento: Calma
Temperatura: 3°C
Rocío: -1°C
Humedad: 75%
Barómetro: 1017.6 hPa
Resumen: Haze, Smoke
Clouds: Despejado
Visibility: 2 km
2018/11/19 12:53 KLVK 191253Z AUTO 00000KT 2 1/2SM HZ FU CLR 03/M01 A3005 RMK AO2 SLP175 T00281006